Impacts METAR Board INFO
IDs:

KMEI - Meridian/Key Fld, MS, US

Updated at: 0036 UTC 23 Feb 2018
Potential Impact None Slight Moderate High
Time22/12Z 22/13Z 22/14Z 22/15Z 22/16Z 22/17Z 22/18Z 22/19Z 22/20Z 22/21Z 22/22Z 22/23Z 23/00Z
VIS10 10 10 10 10 10 10 10 10 10 10 10 10
CIG-- -- -- -- -- -- -- 55 -- -- -- -- --
CoverCLRFEWSCTFEWSCTSCTSCTBKNSCTSCTFEWCLRCLR
FltCatVFRVFRVFRVFRVFRVFRVFRVFRVFRVFRVFRVFRVFR
WX--------------------------
WDir180170180180180170170160170170160150150
WSpd8 6 9 13 15 13 7 11 10 11 11 8 7
WGst-- -- -- -- -- -- -- -- -- -- -- -- --
Raw hourly METARs
KMEI 221158Z 18008KT 10SM CLR 21/19 A3030 RMK AO2 SLP259 70006 T02110194 10228 20211 51008
KMEI 221258Z 17006KT 10SM FEW025 21/19 A3032 RMK AO2 SLP263 T02110194
KMEI 221358Z 18009KT 10SM SCT012 SCT022 23/20 A3034 RMK AO2 SLP270 T02280200
KMEI 221458Z 18013KT 10SM FEW016 24/20 A3035 RMK AO2 SLP274 T02440200 52017
KMEI 221558Z 18015KT 10SM SCT018 26/19 A3036 RMK AO2 SLP275 T02560189
KMEI 221658Z 17013KT 10SM SCT031 27/18 A3035 RMK AO2 SLP274 T02720183
KMEI 221758Z 17007KT 10SM SCT038 28/18 A3033 RMK AO2 SLP268 T02780178 10283 20211 58007
KMEI 221858Z 16011KT 10SM SCT046 BKN055 28/17 A3030 RMK AO2 SLP258 T02830172
KMEI 221958Z 17010KT 10SM SCT060 29/17 A3027 RMK AO2 SLP248 T02940167
KMEI 222058Z 17011KT 10SM SCT075 29/17 A3026 RMK AO2 SLP243 T02890167 56024
KMEI 222158Z 16011KT 10SM FEW055 29/16 A3025 RMK AO2 SLP240 T02890156
KMEI 222258Z 15008KT 10SM CLR 28/17 A3025 RMK AO2 SLP241 T02830167
KMEI 222358Z 15007KT 10SM CLR 26/17 A3026 RMK AO2 SLP243 T02560167 10300 20256 55000